Time;durP1;ratioP1;P1;durP2;ratioP2;P2;SDS_P1;SDS_P2;PMS_P1;PMS_P2;Temp;Humidity;BMP_temperature;BMP_pressure;BME280_temperature;BME280_humidity;BME280_pressure;Samples;Min_cycle;Max_cycle;Signal;HPM_P1;HPM_P2
2022/10/26 00:00:18;;;;;;;;;;;;;;;;;;5068891;28;19917;-73
2022/10/26 00:02:43;;;;;;;;;;;;;;;;;;5071216;28;19919;-74
2022/10/26 00:05:09;;;;;;;;;;;;;;;;;;5056014;28;20434;-74
2022/10/26 00:07:34;;;;;;;;;;;;;;;;;;5064134;28;20281;-74
2022/10/26 00:09:59;;;;;;;;;;;;;;;;;;5069381;28;20277;-74
2022/10/26 00:12:24;;;;;;;;;;;;;;;;;;5100231;28;19912;-74
2022/10/26 00:14:49;;;;;;;;;;;;;;;;;;5063674;28;19912;-75
2022/10/26 00:17:14;;;;;;;;;;;;;;;;;;5054754;28;20318;-74
2022/10/26 00:19:39;;;;;;;;;;;;;;;;;;5067359;28;19913;-74
2022/10/26 00:22:04;;;;;;;;;;;;;;;;;;5069782;28;19920;-74
2022/10/26 00:24:30;;;;;;;;;;;;;;;;;;5071311;28;19908;-74
2022/10/26 00:26:55;;;;;;;;;;;;;;;;;;5078710;28;19965;-74
2022/10/26 00:29:20;;;;;;;;;;;;;;;;;;5067628;28;20323;-74
2022/10/26 00:31:45;;;;;;;;;;;;;;;;;;5074496;28;19908;-74
2022/10/26 00:34:10;;;;;;;;;;;;;;;;;;5073264;28;19913;-73
2022/10/26 00:36:35;;;;;;;;;;;;;;;;;;5076257;28;19916;-74
2022/10/26 00:39:00;;;;;;;;;;;;;;;;;;5072772;28;19967;-74
2022/10/26 00:41:26;;;;;;;;;;;;;;;;;;5074450;28;19920;-74
2022/10/26 00:43:51;;;;;;;;;;;;;;;;;;5105665;28;19934;-74
2022/10/26 00:46:16;;;;;;;;;;;;;;;;;;5069101;28;20312;-74
2022/10/26 00:48:41;;;;;;;;;;;;;;;;;;5059171;28;19963;-74
2022/10/26 00:51:06;;;;;;;;;;;;;;;;;;5070390;28;19927;-74
2022/10/26 00:53:31;;;;;;;;;;;;;;;;;;5068515;28;20020;-74
2022/10/26 00:55:56;;;;;;;;;;;;;;;;;;5073768;28;19913;-74
2022/10/26 00:58:22;;;;;;;;;;;;;;;;;;5078115;28;19916;-74
2022/10/26 01:00:47;;;;;;;;;;;;;;;;;;5072326;28;19916;-74
2022/10/26 01:03:12;;;;;;;;;;;;;;;;;;5060962;28;19923;-74
2022/10/26 01:05:37;;;;;;;;;;;;;;;;;;5073647;28;19915;-74
2022/10/26 01:08:02;;;;;;;;;;;;;;;;;;5106359;27;19916;-74
2022/10/26 01:10:27;;;;;;;;;;;;;;;;;;5060612;28;20090;-74
2022/10/26 01:12:52;;;;;;;;;;;;;;;;;;5072813;28;19916;-73
2022/10/26 01:15:18;;;;;;;;;;;;;;;;;;5072800;28;19923;-74
2022/10/26 01:17:43;;;;;;;;;;;;;;;;;;5113436;27;20005;-75
2022/10/26 01:20:08;;;;;;;;;;;;;;;;;;5099347;28;19916;-74
2022/10/26 01:22:33;;;;;;;;;;;;;;;;;;5070442;28;19920;-74
2022/10/26 01:24:58;;;;;;;;;;;;;;;;;;5071672;28;19921;-74
2022/10/26 01:27:23;;;;;;;;;;;;;;;;;;5072989;28;19923;-75
2022/10/26 01:29:49;;;;;;;;;;;;;;;;;;5072427;28;20361;-73
2022/10/26 01:32:14;;;;;;;;;;;;;;;;;;5073813;28;19995;-74
2022/10/26 01:34:39;;;;;;;;;;;;;;;;;;5080638;28;19909;-74
2022/10/26 01:37:04;;;;;;;;;;;;;;;;;;5074066;28;19913;-73
2022/10/26 01:39:29;;;;;;;;;;;;;;;;;;5103303;28;20342;-74
2022/10/26 01:41:54;;;;;;;;;;;;;;;;;;5082008;28;20433;-74
2022/10/26 01:44:19;;;;;;;;;;;;;;;;;;5072969;28;19916;-73
2022/10/26 01:46:44;;;;;;;;;;;;;;;;;;5073709;28;19953;-73
2022/10/26 01:49:10;;;;;;;;;;;;;;;;;;5076687;28;19962;-71
2022/10/26 01:51:35;;;;;;;;;;;;;;;;;;5074488;28;19916;-73
2022/10/26 01:54:00;;;;;;;;;;;;;;;;;;5071819;28;20069;-74
2022/10/26 01:56:25;;;;;;;;;;;;;;;;;;5071585;28;20011;-73
2022/10/26 01:58:50;;;;;;;;;;;;;;;;;;5102317;28;20377;-73
2022/10/26 02:01:15;;;;;;;;;;;;;;;;;;5104302;28;19916;-72
2022/10/26 02:03:40;;;;;;;;;;;;;;;;;;5070537;28;19919;-74
2022/10/26 02:06:06;;;;;;;;;;;;;;;;;;5072665;28;20261;-71
2022/10/26 02:08:31;;;;;;;;;;;;;;;;;;5075417;28;20331;-73
2022/10/26 02:10:56;;;;;;;;;;;;;;;;;;5070430;28;19919;-72
2022/10/26 02:13:21;;;;;;;;;;;;;;;;;;5071250;28;20288;-73
2022/10/26 02:15:47;;;;;;;;;;;;;;;;;;5104945;28;20364;-73
2022/10/26 02:18:12;;;;;;;;;;;;;;;;;;5072196;28;19958;-73
2022/10/26 02:20:37;;;;;;;;;;;;;;;;;;5068818;28;19916;-73
2022/10/26 02:23:02;;;;;;;;;;;;;;;;;;5070611;28;19943;-73
2022/10/26 02:25:27;;;;;;;;;;;;;;;;;;5070072;28;19964;-74
2022/10/26 02:27:52;;;;;;;;;;;;;;;;;;5070870;28;19913;-73
2022/10/26 02:30:17;;;;;;;;;;;;;;;;;;5070933;28;19942;-73
2022/10/26 02:32:42;;;;;;;;;;;;;;;;;;5095793;28;19928;-75
2022/10/26 02:35:08;;;;;;;;;;;;;;;;;;5084844;28;19961;-73
2022/10/26 02:37:33;;;;;;;;;;;;;;;;;;5085953;28;19956;-73
2022/10/26 02:39:58;;;;;;;;;;;;;;;;;;5070769;28;19912;-74
2022/10/26 02:42:23;;;;;;;;;;;;;;;;;;5069736;28;19967;-74
2022/10/26 02:44:48;;;;;;;;;;;;;;;;;;5072825;28;20427;-74
2022/10/26 02:47:13;;;;;;;;;;;;;;;;;;5072119;28;19916;-73
2022/10/26 02:49:38;;;;;;;;;;;;;;;;;;5072022;28;19913;-73
2022/10/26 02:52:04;;;;;;;;;;;;;;;;;;5069362;28;19913;-74
2022/10/26 02:54:29;;;;;;;;;;;;;;;;;;5072275;28;19912;-73
2022/10/26 02:56:54;;;;;;;;;;;;;;;;;;5070871;28;19951;-73
2022/10/26 02:59:19;;;;;;;;;;;;;;;;;;5078432;28;20438;-73
2022/10/26 03:01:44;;;;;;;;;;;;;;;;;;5069643;28;19962;-73
2022/10/26 03:04:09;;;;;;;;;;;;;;;;;;5080044;28;19916;-73
2022/10/26 03:06:34;;;;;;;;;;;;;;;;;;5080795;28;19912;-73
2022/10/26 03:08:59;;;;;;;;;;;;;;;;;;5071345;28;19938;-73
2022/10/26 03:11:24;;;;;;;;;;;;;;;;;;5070831;28;19912;-73
2022/10/26 03:13:50;;;;;;;;;;;;;;;;;;5075659;28;19982;-73
2022/10/26 03:16:15;;;;;;;;;;;;;;;;;;5074610;28;20008;-73
2022/10/26 03:18:40;;;;;;;;;;;;;;;;;;5052303;28;19913;-72
2022/10/26 03:21:05;;;;;;;;;;;;;;;;;;5068819;28;19917;-74
2022/10/26 03:23:30;;;;;;;;;;;;;;;;;;5070626;28;19969;-73
2022/10/26 03:25:55;;;;;;;;;;;;;;;;;;5071418;28;19920;-72
2022/10/26 03:28:21;;;;;;;;;;;;;;;;;;5085163;28;19997;-72
2022/10/26 03:30:46;;;;;;;;;;;;;;;;;;5108162;28;19934;-74
2022/10/26 03:33:11;;;;;;;;;;;;;;;;;;5070103;28;19948;-74
2022/10/26 03:35:36;;;;;;;;;;;;;;;;;;5070748;28;20287;-74
2022/10/26 03:38:01;;;;;;;;;;;;;;;;;;5074108;28;19909;-73
2022/10/26 03:40:26;;;;;;;;;;;;;;;;;;5070852;28;19939;-73
2022/10/26 03:42:51;;;;;;;;;;;;;;;;;;5071378;28;19915;-74
2022/10/26 03:45:16;;;;;;;;;;;;;;;;;;5102034;28;19920;-74
2022/10/26 03:47:42;;;;;;;;;;;;;;;;;;5069887;28;19916;-73
2022/10/26 03:50:07;;;;;;;;;;;;;;;;;;5070906;28;19916;-73
2022/10/26 03:52:32;;;;;;;;;;;;;;;;;;5069039;28;19916;-73
2022/10/26 03:54:57;;;;;;;;;;;;;;;;;;5067736;28;19913;-73
2022/10/26 03:57:22;;;;;;;;;;;;;;;;;;5070594;28;20019;-73
2022/10/26 03:59:47;;;;;;;;;;;;;;;;;;5100384;28;19913;-74
2022/10/26 04:02:14;;;;;;;;;;;;;;;;;;5075547;28;20373;-74
2022/10/26 04:04:39;;;;;;;;;;;;;;;;;;5094028;28;19953;-74
2022/10/26 04:07:04;;;;;;;;;;;;;;;;;;5072669;28;20352;-74
2022/10/26 04:09:29;;;;;;;;;;;;;;;;;;5106091;28;19919;-74
2022/10/26 04:11:54;;;;;;;;;;;;;;;;;;5072052;28;19992;-74
2022/10/26 04:14:19;;;;;;;;;;;;;;;;;;5055458;28;20284;-74
2022/10/26 04:16:44;;;;;;;;;;;;;;;;;;5070057;28;19970;-74
2022/10/26 04:19:09;;;;;;;;;;;;;;;;;;5087794;28;20360;-74
2022/10/26 04:21:35;;;;;;;;;;;;;;;;;;5071407;28;20395;-74
2022/10/26 04:24:00;;;;;;;;;;;;;;;;;;5073093;28;19916;-74
2022/10/26 04:26:25;;;;;;;;;;;;;;;;;;5074413;28;19920;-73
2022/10/26 04:28:50;;;;;;;;;;;;;;;;;;5070994;28;20280;-73
2022/10/26 04:31:15;;;;;;;;;;;;;;;;;;5073808;28;20380;-74
2022/10/26 04:33:40;;;;;;;;;;;;;;;;;;5075062;28;19912;-74
2022/10/26 04:36:05;;;;;;;;;;;;;;;;;;5072708;28;19913;-72
2022/10/26 04:38:31;;;;;;;;;;;;;;;;;;5072130;28;20288;-74
2022/10/26 04:40:56;;;;;;;;;;;;;;;;;;5073609;28;20319;-73
2022/10/26 04:43:21;;;;;;;;;;;;;;;;;;5076800;28;20412;-74
2022/10/26 04:45:46;;;;;;;;;;;;;;;;;;5073828;28;20006;-73
2022/10/26 04:48:11;;;;;;;;;;;;;;;;;;5066981;28;20472;-74
2022/10/26 04:50:36;;;;;;;;;;;;;;;;;;5098635;27;19916;-73
2022/10/26 04:53:01;;;;;;;;;;;;;;;;;;5071714;28;19935;-75
2022/10/26 04:55:26;;;;;;;;;;;;;;;;;;5091728;28;19908;-74
2022/10/26 04:57:52;;;;;;;;;;;;;;;;;;5065854;28;19916;-75
2022/10/26 05:00:17;;;;;;;;;;;;;;;;;;5103550;28;19920;-75
2022/10/26 05:02:42;;;;;;;;;;;;;;;;;;5065373;28;19909;-74
2022/10/26 05:05:07;;;;;;;;;;;;;;;;;;5074301;28;19908;-74
2022/10/26 05:07:32;;;;;;;;;;;;;;;;;;5071567;28;19924;-74
2022/10/26 05:09:57;;;;;;;;;;;;;;;;;;5066663;28;19917;-73
2022/10/26 05:12:22;;;;;;;;;;;;;;;;;;5106879;28;20364;-74
2022/10/26 05:14:48;;;;;;;;;;;;;;;;;;5069136;28;19920;-73
2022/10/26 05:17:13;;;;;;;;;;;;;;;;;;5067828;28;20385;-72
2022/10/26 05:19:38;;;;;;;;;;;;;;;;;;5083470;28;19913;-74
2022/10/26 05:22:03;;;;;;;;;;;;;;;;;;5068030;28;19958;-74
2022/10/26 05:24:28;;;;;;;;;;;;;;;;;;5066785;28;19920;-69
2022/10/26 05:26:53;;;;;;;;;;;;;;;;;;5075580;28;19924;-69
2022/10/26 05:29:18;;;;;;;;;;;;;;;;;;5073394;28;19954;-69
2022/10/26 05:31:44;;;;;;;;;;;;;;;;;;5070989;28;19913;-70
2022/10/26 05:34:09;;;;;;;;;;;;;;;;;;5074733;28;19908;-70
2022/10/26 05:36:34;;;;;;;;;;;;;;;;;;5070507;28;19913;-70
2022/10/26 05:38:59;;;;;;;;;;;;;;;;;;5100216;28;19919;-70
2022/10/26 05:41:24;;;;;;;;;;;;;;;;;;5069727;28;19923;-70
2022/10/26 05:43:49;;;;;;;;;;;;;;;;;;5068967;28;19924;-69
2022/10/26 05:46:14;;;;;;;;;;;;;;;;;;5105053;28;20368;-70
2022/10/26 05:48:40;;;;;;;;;;;;;;;;;;5072134;28;19919;-70
2022/10/26 05:51:05;;;;;;;;;;;;;;;;;;5065941;28;19909;-69
2022/10/26 05:53:30;;;;;;;;;;;;;;;;;;5071130;28;19912;-70
2022/10/26 05:55:55;;;;;;;;;;;;;;;;;;5069671;28;19919;-68
2022/10/26 05:58:20;;;;;;;;;;;;;;;;;;5069374;28;19921;-71
2022/10/26 06:00:45;;;;;;;;;;;;;;;;;;5072241;28;19916;-69
2022/10/26 06:03:10;;;;;;;;;;;;;;;;;;5068550;28;19916;-68
2022/10/26 06:05:35;;;;;;;;;;;;;;;;;;5072455;28;19908;-69
2022/10/26 06:08:01;;;;;;;;;;;;;;;;;;5070656;28;19917;-66
2022/10/26 06:10:26;;;;;;;;;;;;;;;;;;5069309;28;19932;-68
2022/10/26 06:12:51;;;;;;;;;;;;;;;;;;5070699;28;20364;-66
2022/10/26 06:15:16;;;;;;;;;;;;;;;;;;5071176;28;19915;-69
2022/10/26 06:17:41;;;;;;;;;;;;;;;;;;5070415;28;20002;-68
2022/10/26 06:20:07;;;;;;;;;;;;;;;;;;5070108;28;19939;-69
2022/10/26 06:22:32;;;;;;;;;;;;;;;;;;5067501;28;19962;-69
2022/10/26 06:24:57;;;;;;;;;;;;;;;;;;5070361;28;19920;-69
2022/10/26 06:27:22;;;;;;;;;;;;;;;;;;5072380;28;19909;-69
2022/10/26 06:29:48;;;;;;;;;;;;;;;;;;5070443;28;20370;-69
2022/10/26 06:32:14;;;;;;;;;;;;;;;;;;5069959;28;19908;-69
2022/10/26 06:34:39;;;;;;;;;;;;;;;;;;5070326;28;19919;-69
2022/10/26 06:37:04;;;;;;;;;;;;;;;;;;5071951;28;19915;-69
2022/10/26 06:39:29;;;;;;;;;;;;;;;;;;5069307;28;19970;-70
2022/10/26 06:41:54;;;;;;;;;;;;;;;;;;5071907;28;19912;-69
2022/10/26 06:44:19;;;;;;;;;;;;;;;;;;5068338;28;20031;-69
2022/10/26 06:46:45;;;;;;;;;;;;;;;;;;5103432;28;19909;-70
2022/10/26 06:49:10;;;;;;;;;;;;;;;;;;5069807;28;19916;-66
2022/10/26 06:51:35;;;;;;;;;;;;;;;;;;5062610;28;20392;-70
2022/10/26 06:54:00;;;;;;;;;;;;;;;;;;5071812;28;20470;-68
2022/10/26 06:56:25;;;;;;;;;;;;;;;;;;5070025;28;20348;-68
2022/10/26 06:58:50;;;;;;;;;;;;;;;;;;5072068;28;19920;-68
2022/10/26 07:01:15;;;;;;;;;;;;;;;;;;5068233;28;19917;-68
2022/10/26 07:03:41;;;;;;;;;;;;;;;;;;5071062;28;19922;-68
2022/10/26 07:06:06;;;;;;;;;;;;;;;;;;5065948;28;19913;-68
2022/10/26 07:08:31;;;;;;;;;;;;;;;;;;5068163;28;19919;-68
2022/10/26 07:10:56;;;;;;;;;;;;;;;;;;5069026;28;20004;-68
2022/10/26 07:13:21;;;;;;;;;;;;;;;;;;5071733;28;19912;-69
2022/10/26 07:15:46;;;;;;;;;;;;;;;;;;5070482;28;19912;-69
2022/10/26 07:18:12;;;;;;;;;;;;;;;;;;5068515;28;20415;-70
2022/10/26 07:20:37;;;;;;;;;;;;;;;;;;5057667;28;19970;-69
2022/10/26 07:23:02;;;;;;;;;;;;;;;;;;5064754;28;20369;-69
2022/10/26 07:25:27;;;;;;;;;;;;;;;;;;5064326;28;19950;-68
2022/10/26 07:27:52;;;;;;;;;;;;;;;;;;5069375;28;20372;-69
2022/10/26 07:30:18;;;;;;;;;;;;;;;;;;5070990;28;20367;-69
2022/10/26 07:32:43;;;;;;;;;;;;;;;;;;5075577;28;20287;-68
2022/10/26 07:35:08;;;;;;;;;;;;;;;;;;5073090;28;19913;-69
2022/10/26 07:37:33;;;;;;;;;;;;;;;;;;5074494;28;19913;-69
2022/10/26 07:39:58;;;;;;;;;;;;;;;;;;5070348;28;20050;-69
2022/10/26 07:42:23;;;;;;;;;;;;;;;;;;5074293;28;19958;-69
2022/10/26 07:44:48;;;;;;;;;;;;;;;;;;5073799;28;19913;-68
2022/10/26 07:47:14;;;;;;;;;;;;;;;;;;5108039;28;20428;-68
2022/10/26 07:49:39;;;;;;;;;;;;;;;;;;5074263;28;19954;-68
2022/10/26 07:52:04;;;;;;;;;;;;;;;;;;5068743;28;19913;-69
2022/10/26 07:54:29;;;;;;;;;;;;;;;;;;5075306;28;20388;-69
2022/10/26 07:56:54;;;;;;;;;;;;;;;;;;5073749;28;19913;-69
2022/10/26 07:59:19;;;;;;;;;;;;;;;;;;5075140;28;20007;-69
2022/10/26 08:01:44;;;;;;;;;;;;;;;;;;5071121;28;19923;-69
2022/10/26 08:04:09;;;;;;;;;;;;;;;;;;5073425;28;19958;-69
2022/10/26 08:06:35;;;;;;;;;;;;;;;;;;5074547;28;20395;-69
2022/10/26 08:09:00;;;;;;;;;;;;;;;;;;5068813;28;19959;-69
2022/10/26 08:11:25;;;;;;;;;;;;;;;;;;5074106;28;19913;-69
2022/10/26 08:13:50;;;;;;;;;;;;;;;;;;5075013;28;20285;-67
2022/10/26 08:16:15;;;;;;;;;;;;;;;;;;5073911;28;19912;-69
2022/10/26 08:18:40;;;;;;;;;;;;;;;;;;5069290;28;19924;-69
2022/10/26 08:21:06;;;;;;;;;;;;;;;;;;5068504;28;20015;-68
2022/10/26 08:23:31;;;;;;;;;;;;;;;;;;5101331;27;20386;-70
2022/10/26 08:25:56;;;;;;;;;;;;;;;;;;5071707;28;19964;-69
2022/10/26 08:28:21;;;;;;;;;;;;;;;;;;5070295;28;19920;-68
2022/10/26 08:30:46;;;;;;;;;;;;;;;;;;5072246;28;20016;-68
2022/10/26 08:33:11;;;;;;;;;;;;;;;;;;5069936;28;19913;-67
2022/10/26 08:35:36;;;;;;;;;;;;;;;;;;5072048;28;19912;-67
2022/10/26 08:38:02;;;;;;;;;;;;;;;;;;5072887;28;20274;-67
2022/10/26 08:40:27;;;;;;;;;;;;;;;;;;5065577;28;19916;-69
2022/10/26 08:42:52;;;;;;;;;;;;;;;;;;5071722;28;19920;-68
2022/10/26 08:45:17;;;;;;;;;;;;;;;;;;5073740;28;19912;-68
2022/10/26 08:47:42;;;;;;;;;;;;;;;;;;5071353;28;19931;-70
2022/10/26 08:50:07;;;;;;;;;;;;;;;;;;5069842;28;20464;-69
2022/10/26 08:52:32;;;;;;;;;;;;;;;;;;5067576;28;19913;-69
2022/10/26 08:54:58;;;;;;;;;;;;;;;;;;5069747;28;19917;-68
2022/10/26 08:57:23;;;;;;;;;;;;;;;;;;5069319;28;19920;-68
2022/10/26 08:59:48;;;;;;;;;;;;;;;;;;5068648;28;19913;-70
2022/10/26 09:02:13;;;;;;;;;;;;;;;;;;5099830;28;19917;-69
2022/10/26 09:04:38;;;;;;;;;;;;;;;;;;5068974;28;20007;-69
2022/10/26 09:07:03;;;;;;;;;;;;;;;;;;5070965;28;19917;-68
2022/10/26 09:09:28;;;;;;;;;;;;;;;;;;5059789;28;19912;-67
2022/10/26 09:11:54;;;;;;;;;;;;;;;;;;5067758;28;19913;-69
2022/10/26 09:14:19;;;;;;;;;;;;;;;;;;5068991;28;19966;-68
2022/10/26 09:16:44;;;;;;;;;;;;;;;;;;5072566;28;19954;-68
2022/10/26 09:19:09;;;;;;;;;;;;;;;;;;5073474;28;19916;-68
2022/10/26 09:21:34;;;;;;;;;;;;;;;;;;5067921;28;19917;-68
2022/10/26 09:23:59;;;;;;;;;;;;;;;;;;5073823;28;19939;-68
2022/10/26 09:26:24;;;;;;;;;;;;;;;;;;5072418;28;19968;-68
2022/10/26 09:28:50;;;;;;;;;;;;;;;;;;5073457;28;19912;-69
2022/10/26 09:31:15;;;;;;;;;;;;;;;;;;5069109;28;20043;-68
2022/10/26 09:33:40;;;;;;;;;;;;;;;;;;5073018;28;19995;-68
2022/10/26 09:36:06;;;;;;;;;;;;;;;;;;5073071;28;20364;-69
2022/10/26 09:38:31;;;;;;;;;;;;;;;;;;5073188;28;20007;-69
2022/10/26 09:40:56;;;;;;;;;;;;;;;;;;5072506;28;19913;-69
2022/10/26 09:43:23;;;;;;;;;;;;;;;;;;5072791;28;20312;-68
2022/10/26 09:45:48;;;;;;;;;;;;;;;;;;5072954;28;19908;-68
2022/10/26 09:48:13;;;;;;;;;;;;;;;;;;5073211;28;20046;-69
2022/10/26 09:50:38;;;;;;;;;;;;;;;;;;5064200;28;20351;-68
2022/10/26 09:53:03;;;;;;;;;;;;;;;;;;5063054;28;19917;-68
2022/10/26 09:55:29;;;;;;;;;;;;;;;;;;5068399;28;19913;-69
2022/10/26 09:57:54;;;;;;;;;;;;;;;;;;5070703;28;19973;-69
2022/10/26 10:00:19;;;;;;;;;;;;;;;;;;5067095;28;20323;-69
2022/10/26 10:02:44;;;;;;;;;;;;;;;;;;5070692;28;19999;-69
2022/10/26 10:05:09;;;;;;;;;;;;;;;;;;5070954;28;19920;-66
2022/10/26 10:07:34;;;;;;;;;;;;;;;;;;5068036;28;20334;-69
2022/10/26 10:10:00;;;;;;;;;;;;;;;;;;5071079;28;19962;-67
2022/10/26 10:12:25;;;;;;;;;;;;;;;;;;5070962;28;19912;-70
2022/10/26 10:14:50;;;;;;;;;;;;;;;;;;5071101;28;20131;-69
2022/10/26 10:17:15;;;;;;;;;;;;;;;;;;5066921;28;19916;-69
2022/10/26 10:19:41;;;;;;;;;;;;;;;;;;5070869;28;20335;-69
2022/10/26 10:22:06;;;;;;;;;;;;;;;;;;5064816;28;19916;-69
2022/10/26 10:24:31;;;;;;;;;;;;;;;;;;5067799;28;20400;-66
2022/10/26 10:26:57;;;;;;;;;;;;;;;;;;5067245;28;20410;-69
2022/10/26 10:29:22;;;;;;;;;;;;;;;;;;5068529;28;19916;-68
2022/10/26 10:31:47;;;;;;;;;;;;;;;;;;5067902;28;19913;-69
2022/10/26 10:34:12;;;;;;;;;;;;;;;;;;5070057;28;20053;-69
2022/10/26 10:36:37;;;;;;;;;;;;;;;;;;5068610;28;19913;-69
2022/10/26 10:39:02;;;;;;;;;;;;;;;;;;5068045;28;19923;-69
2022/10/26 10:41:27;;;;;;;;;;;;;;;;;;5068160;28;19923;-68
2022/10/26 10:43:53;;;;;;;;;;;;;;;;;;5068768;28;20440;-68
2022/10/26 10:46:18;;;;;;;;;;;;;;;;;;5061995;28;19919;-68
2022/10/26 10:48:43;;;;;;;;;;;;;;;;;;5062516;28;20003;-68
2022/10/26 10:51:11;;;;;;;;;;;;;;;;;;5061787;28;20327;-68
2022/10/26 10:53:37;;;;;;;;;;;;;;;;;;5065836;28;19912;-68
2022/10/26 10:56:02;;;;;;;;;;;;;;;;;;5066967;28;19923;-67
2022/10/26 10:58:27;;;;;;;;;;;;;;;;;;5063922;28;19966;-68
2022/10/26 11:00:52;;;;;;;;;;;;;;;;;;5068995;28;20722;-69
2022/10/26 11:03:17;;;;;;;;;;;;;;;;;;5070391;28;19948;-68
2022/10/26 11:05:42;;;;;;;;;;;;;;;;;;5058125;28;19963;-68
2022/10/26 11:08:07;;;;;;;;;;;;;;;;;;5069644;28;19938;-70
2022/10/26 11:10:33;;;;;;;;;;;;;;;;;;5068952;28;19920;-69
2022/10/26 11:12:58;;;;;;;;;;;;;;;;;;5068451;28;19973;-68
2022/10/26 11:15:23;;;;;;;;;;;;;;;;;;5066919;28;19999;-68
2022/10/26 11:17:48;;;;;;;;;;;;;;;;;;5059496;28;19921;-68
2022/10/26 11:20:13;;;;;;;;;;;;;;;;;;5060714;28;20378;-67
2022/10/26 11:22:38;;;;;;;;;;;;;;;;;;5063571;28;19917;-68
2022/10/26 11:25:03;;;;;;;;;;;;;;;;;;5069468;28;19979;-68
2022/10/26 11:27:28;;;;;;;;;;;;;;;;;;5071046;28;19912;-68
2022/10/26 11:29:54;;;;;;;;;;;;;;;;;;5065666;28;19928;-69
2022/10/26 11:32:19;;;;;;;;;;;;;;;;;;5064020;28;20002;-69
2022/10/26 11:34:44;;;;;;;;;;;;;;;;;;5100531;28;19999;-68
2022/10/26 11:37:09;;;;;;;;;;;;;;;;;;5068803;28;19920;-69
2022/10/26 11:39:34;;;;;;;;;;;;;;;;;;5101973;28;19919;-68
2022/10/26 11:41:59;;;;;;;;;;;;;;;;;;5099812;28;19967;-68
2022/10/26 11:44:24;;;;;;;;;;;;;;;;;;5097581;28;19988;-68
2022/10/26 11:46:50;;;;;;;;;;;;;;;;;;5102122;28;19912;-68
2022/10/26 11:49:15;;;;;;;;;;;;;;;;;;5071064;28;20292;-68
2022/10/26 11:51:40;;;;;;;;;;;;;;;;;;5061903;28;19966;-68
2022/10/26 11:54:05;;;;;;;;;;;;;;;;;;5068584;28;19912;-69
2022/10/26 11:56:30;;;;;;;;;;;;;;;;;;5063097;28;20010;-69
2022/10/26 11:58:55;;;;;;;;;;;;;;;;;;5069338;28;19966;-69
2022/10/26 12:01:20;;;;;;;;;;;;;;;;;;5069666;28;20691;-66
2022/10/26 12:03:46;;;;;;;;;;;;;;;;;;5067256;28;19919;-67
2022/10/26 12:06:11;;;;;;;;;;;;;;;;;;5060196;28;20282;-67
2022/10/26 12:08:36;;;;;;;;;;;;;;;;;;5058613;28;19912;-68
2022/10/26 12:11:01;;;;;;;;;;;;;;;;;;5059639;28;20003;-68
2022/10/26 12:13:26;;;;;;;;;;;;;;;;;;5065611;28;19938;-69
2022/10/26 12:15:51;;;;;;;;;;;;;;;;;;5094457;28;19923;-67
2022/10/26 12:18:17;;;;;;;;;;;;;;;;;;5061884;28;19913;-68
2022/10/26 12:20:42;;;;;;;;;;;;;;;;;;5092180;28;19924;-68
2022/10/26 12:23:07;;;;;;;;;;;;;;;;;;5063011;28;19917;-69
2022/10/26 12:25:32;;;;;;;;;;;;;;;;;;5102510;28;19967;-68
2022/10/26 12:27:59;;;;;;;;;;;;;;;;;;5072893;28;19912;-68
2022/10/26 12:30:24;;;;;;;;;;;;;;;;;;5069778;28;19916;-66
2022/10/26 12:32:49;;;;;;;;;;;;;;;;;;5069736;28;20041;-71
2022/10/26 12:35:14;;;;;;;;;;;;;;;;;;5065827;28;19935;-70
2022/10/26 12:37:39;;;;;;;;;;;;;;;;;;5065866;28;19912;-69
2022/10/26 12:40:05;;;;;;;;;;;;;;;;;;5059568;28;19918;-69
2022/10/26 12:42:30;;;;;;;;;;;;;;;;;;5072031;28;19916;-69
2022/10/26 12:44:55;;;;;;;;;;;;;;;;;;5103004;28;19927;-70
2022/10/26 12:47:20;;;;;;;;;;;;;;;;;;5084389;28;19916;-68
2022/10/26 12:49:46;;;;;;;;;;;;;;;;;;5060349;28;19946;-69
2022/10/26 12:52:11;;;;;;;;;;;;;;;;;;5098076;28;19912;-69
2022/10/26 12:54:38;;;;;;;;;;;;;;;;;;5071671;28;19912;-69
2022/10/26 12:57:04;;;;;;;;;;;;;;;;;;5065800;28;19923;-68
2022/10/26 12:59:29;;;;;;;;;;;;;;;;;;5064403;28;19912;-68
2022/10/26 13:01:54;;;;;;;;;;;;;;;;;;5060115;28;20003;-69
2022/10/26 13:04:19;;;;;;;;;;;;;;;;;;5072006;28;19916;-69
2022/10/26 13:06:44;;;;;;;;;;;;;;;;;;5066737;28;19916;-67
2022/10/26 13:09:09;;;;;;;;;;;;;;;;;;5069869;28;20003;-68
2022/10/26 13:11:34;;;;;;;;;;;;;;;;;;5067134;28;19912;-68
2022/10/26 13:13:59;;;;;;;;;;;;;;;;;;5068147;28;19913;-69
2022/10/26 13:16:25;;;;;;;;;;;;;;;;;;5072132;28;20061;-68
2022/10/26 13:18:50;;;;;;;;;;;;;;;;;;5105851;28;19913;-68
2022/10/26 13:21:15;;;;;;;;;;;;;;;;;;5099651;28;19960;-68
2022/10/26 13:23:40;;;;;;;;;;;;;;;;;;5067940;28;20435;-68
2022/10/26 13:26:06;;;;;;;;;;;;;;;;;;5067013;28;19921;-68
2022/10/26 13:28:31;;;;;;;;;;;;;;;;;;5069637;28;20373;-68
2022/10/26 13:30:56;;;;;;;;;;;;;;;;;;5065358;28;20372;-67
2022/10/26 13:33:21;;;;;;;;;;;;;;;;;;5069063;28;20309;-69
2022/10/26 13:35:46;;;;;;;;;;;;;;;;;;5057778;28;20592;-69
2022/10/26 13:38:12;;;;;;;;;;;;;;;;;;5059573;28;20560;-67
2022/10/26 13:40:37;;;;;;;;;;;;;;;;;;5096955;28;19924;-68
2022/10/26 13:43:02;;;;;;;;;;;;;;;;;;5062688;28;19916;-66
2022/10/26 13:45:27;;;;;;;;;;;;;;;;;;5062529;28;20018;-68
2022/10/26 13:47:52;;;;;;;;;;;;;;;;;;5065568;28;19926;-67
2022/10/26 13:50:17;;;;;;;;;;;;;;;;;;5061535;28;20354;-68
2022/10/26 13:52:42;;;;;;;;;;;;;;;;;;5089745;28;20285;-70
2022/10/26 13:55:08;;;;;;;;;;;;;;;;;;5064529;28;20061;-69
2022/10/26 13:57:33;;;;;;;;;;;;;;;;;;5067006;28;19962;-69
2022/10/26 13:59:58;;;;;;;;;;;;;;;;;;5069965;28;19913;-69
2022/10/26 14:02:23;;;;;;;;;;;;;;;;;;5065483;28;19923;-69
2022/10/26 14:04:48;;;;;;;;;;;;;;;;;;5055824;28;20262;-69
2022/10/26 14:07:13;;;;;;;;;;;;;;;;;;5068152;28;20511;-69
2022/10/26 14:09:39;;;;;;;;;;;;;;;;;;5064500;28;19919;-70
2022/10/26 14:12:04;;;;;;;;;;;;;;;;;;5063527;28;20507;-66
2022/10/26 14:14:29;;;;;;;;;;;;;;;;;;5063950;28;19996;-69
2022/10/26 14:16:54;;;;;;;;;;;;;;;;;;5070564;28;19963;-69
2022/10/26 14:19:19;;;;;;;;;;;;;;;;;;5102318;28;19958;-68
2022/10/26 14:21:48;;;;;;;;;;;;;;;;;;5062254;28;19973;-68
2022/10/26 14:24:13;;;;;;;;;;;;;;;;;;5069198;28;19970;-68
2022/10/26 14:26:39;;;;;;;;;;;;;;;;;;5065565;28;19960;-68
2022/10/26 14:29:04;;;;;;;;;;;;;;;;;;5059502;28;19916;-69
2022/10/26 14:31:29;;;;;;;;;;;;;;;;;;5060946;28;19920;-67
2022/10/26 14:33:54;;;;;;;;;;;;;;;;;;5091640;28;20838;-68
2022/10/26 14:36:19;;;;;;;;;;;;;;;;;;5060063;28;20361;-68
2022/10/26 14:38:44;;;;;;;;;;;;;;;;;;5063040;28;19928;-67
2022/10/26 14:41:09;;;;;;;;;;;;;;;;;;5058783;28;19916;-68
2022/10/26 14:43:35;;;;;;;;;;;;;;;;;;5061981;28;20460;-69
2022/10/26 14:46:00;;;;;;;;;;;;;;;;;;5064688;28;20357;-69
2022/10/26 14:48:25;;;;;;;;;;;;;;;;;;5066216;28;19960;-69
2022/10/26 14:50:50;;;;;;;;;;;;;;;;;;5057880;28;19921;-69
2022/10/26 14:53:15;;;;;;;;;;;;;;;;;;5061110;28;19966;-69
2022/10/26 14:55:40;;;;;;;;;;;;;;;;;;5059810;28;19909;-70
2022/10/26 14:58:05;;;;;;;;;;;;;;;;;;5063411;28;19913;-69
2022/10/26 15:00:31;;;;;;;;;;;;;;;;;;5058907;28;20376;-69
2022/10/26 15:02:56;;;;;;;;;;;;;;;;;;5098232;28;19951;-69
2022/10/26 15:05:21;;;;;;;;;;;;;;;;;;5060189;28;19924;-69
2022/10/26 15:07:46;;;;;;;;;;;;;;;;;;5064705;28;19938;-69
2022/10/26 15:10:11;;;;;;;;;;;;;;;;;;5063578;28;20405;-69
2022/10/26 15:12:36;;;;;;;;;;;;;;;;;;5068889;28;19974;-69
2022/10/26 15:15:03;;;;;;;;;;;;;;;;;;5061033;28;20380;-68
2022/10/26 15:17:30;;;;;;;;;;;;;;;;;;5067933;28;19936;-69
2022/10/26 15:19:56;;;;;;;;;;;;;;;;;;5068908;28;20474;-69
2022/10/26 15:22:21;;;;;;;;;;;;;;;;;;5058962;28;19928;-69
2022/10/26 15:24:46;;;;;;;;;;;;;;;;;;5068246;28;20402;-67
2022/10/26 15:27:12;;;;;;;;;;;;;;;;;;5069165;28;20005;-69
2022/10/26 15:29:37;;;;;;;;;;;;;;;;;;5062783;28;20349;-67
2022/10/26 15:32:02;;;;;;;;;;;;;;;;;;5069501;28;19912;-69
2022/10/26 15:34:27;;;;;;;;;;;;;;;;;;5100763;28;19925;-68
2022/10/26 15:36:52;;;;;;;;;;;;;;;;;;5062217;28;20373;-69
2022/10/26 15:39:17;;;;;;;;;;;;;;;;;;5060935;28;19916;-69
2022/10/26 15:41:42;;;;;;;;;;;;;;;;;;5102217;28;19978;-69
2022/10/26 15:44:08;;;;;;;;;;;;;;;;;;5059444;28;20336;-69
2022/10/26 15:46:33;;;;;;;;;;;;;;;;;;5062143;28;20347;-69
2022/10/26 15:48:58;;;;;;;;;;;;;;;;;;5067566;28;19917;-68
2022/10/26 15:51:23;;;;;;;;;;;;;;;;;;5060265;28;19913;-69
2022/10/26 15:53:48;;;;;;;;;;;;;;;;;;5066669;28;19946;-69
2022/10/26 15:56:13;;;;;;;;;;;;;;;;;;5063016;28;19920;-69
2022/10/26 15:58:39;;;;;;;;;;;;;;;;;;5096313;28;19955;-69
2022/10/26 16:01:04;;;;;;;;;;;;;;;;;;5070710;28;20288;-66
2022/10/26 16:03:29;;;;;;;;;;;;;;;;;;5072438;28;20273;-69
2022/10/26 16:05:54;;;;;;;;;;;;;;;;;;5071062;28;19965;-68
2022/10/26 16:08:19;;;;;;;;;;;;;;;;;;5070791;28;19908;-70
2022/10/26 16:10:44;;;;;;;;;;;;;;;;;;5067300;28;20007;-68
2022/10/26 16:13:11;;;;;;;;;;;;;;;;;;5072528;28;20353;-69
2022/10/26 16:15:36;;;;;;;;;;;;;;;;;;5066737;28;19909;-69
2022/10/26 16:18:01;;;;;;;;;;;;;;;;;;5071299;28;20392;-68
2022/10/26 16:20:27;;;;;;;;;;;;;;;;;;5063875;28;19970;-68
2022/10/26 16:22:52;;;;;;;;;;;;;;;;;;5064821;28;19912;-69
2022/10/26 16:25:17;;;;;;;;;;;;;;;;;;5065779;28;19917;-69
2022/10/26 16:27:42;;;;;;;;;;;;;;;;;;5065741;28;20491;-70
2022/10/26 16:30:07;;;;;;;;;;;;;;;;;;5063312;28;19913;-69